Vosselaar, Belgium
Current Conditions -  °F | °C
As of 6:55 AM on Wednesday 22 Oct 2014 (Local Time) from EHGR Reporting Station
Overcast Overcast  
Wind Chill: 44°   Ceiling: 4000
Heat Index: 46°   Visibility: 6mi
Dew Point: 43°   Wind: 6mph
Humidity: 87%   Direction: 280°W
Pressure: 29.97"   Gusts: NA
Location:  51.31°N, 4.89°E
Report Text: EHGR 220455Z AUTO 28005KT 9999 SCT036 BKN040 OVC048 08/06 Q1015 BLU
Loading
Personal Weather Stations






























Interactive Weather Map New forecast layout! Learn more

10-Day Weather Forecast

Advertisements
Track Severe Weather on mobile